createdAt,value
2023-04-01T00:00:48.838Z,36.16
2023-04-01T00:01:48.919Z,36.12
2023-04-01T00:02:49.073Z,36.07
2023-04-01T00:03:49.142Z,36.05
2023-04-01T00:04:49.123Z,36.03
2023-04-01T00:05:49.136Z,36.00
2023-04-01T00:06:49.180Z,35.99
2023-04-01T00:07:49.220Z,35.97
2023-04-01T00:08:49.267Z,35.97
2023-04-01T00:09:49.288Z,35.92
2023-04-01T00:10:49.336Z,35.93
2023-04-01T00:11:49.379Z,35.93
2023-04-01T00:12:49.400Z,35.92
2023-04-01T00:13:49.384Z,35.91
2023-04-01T00:14:49.390Z,35.90
2023-04-01T00:15:49.452Z,35.89
2023-04-01T00:16:49.513Z,35.89
2023-04-01T00:17:49.460Z,35.90
2023-04-01T00:18:49.438Z,35.89
2023-04-01T00:19:49.421Z,35.88
2023-04-01T00:20:49.435Z,35.85
2023-04-01T00:21:49.430Z,35.86
2023-04-01T00:22:49.429Z,35.86
2023-04-01T00:23:49.433Z,35.87
2023-04-01T00:24:49.445Z,35.85
2023-04-01T00:25:49.552Z,35.85
2023-04-01T00:26:49.460Z,35.84
2023-04-01T00:27:49.473Z,35.85
2023-04-01T00:28:49.505Z,35.84
2023-04-01T00:29:49.497Z,35.85
2023-04-01T00:30:49.502Z,35.85
2023-04-01T00:31:49.520Z,35.82
2023-04-01T00:32:49.520Z,35.82
2023-04-01T00:33:49.487Z,35.83
2023-04-01T00:34:49.479Z,35.82
2023-04-01T00:35:49.498Z,35.81
2023-04-01T00:36:49.465Z,35.80
2023-04-01T00:37:49.468Z,35.80
2023-04-01T00:38:49.455Z,35.81
2023-04-01T00:39:49.449Z,35.79
2023-04-01T00:40:49.440Z,35.78
2023-04-01T00:41:49.449Z,35.77
2023-04-01T00:42:49.419Z,35.78
2023-04-01T00:43:49.417Z,35.79
2023-04-01T00:44:49.431Z,35.77
2023-04-01T00:45:49.415Z,35.79
2023-04-01T00:46:49.456Z,35.76
2023-04-01T00:47:49.437Z,35.75
2023-04-01T00:48:49.434Z,35.76
2023-04-01T00:49:49.429Z,35.74
2023-04-01T00:50:49.426Z,35.75
2023-04-01T00:51:49.438Z,35.74
2023-04-01T00:52:49.451Z,35.76
2023-04-01T00:53:49.460Z,35.73
2023-04-01T00:54:49.432Z,35.73
2023-04-01T00:55:49.421Z,35.72
2023-04-01T00:56:49.503Z,35.72
2023-04-01T00:57:49.429Z,35.70
2023-04-01T00:58:49.419Z,35.71
2023-04-01T00:59:49.430Z,35.69
2023-04-01T01:00:49.524Z,35.69
2023-04-01T01:01:49.476Z,35.68
2023-04-01T01:02:49.604Z,35.67
2023-04-01T01:03:49.478Z,35.68
2023-04-01T01:04:49.492Z,35.65
2023-04-01T01:05:50.043Z,35.66
2023-04-01T01:06:49.459Z,35.67
2023-04-01T01:07:49.467Z,35.67
2023-04-01T01:08:49.446Z,35.65
2023-04-01T01:09:49.443Z,35.64
2023-04-01T01:10:49.436Z,35.68
2023-04-01T01:11:49.443Z,35.64
2023-04-01T01:12:49.415Z,35.62
2023-04-01T01:13:49.417Z,35.62
2023-04-01T01:14:49.423Z,35.62
2023-04-01T01:15:49.430Z,35.62
2023-04-01T01:16:49.492Z,35.62
2023-04-01T01:17:49.452Z,35.61
2023-04-01T01:18:49.403Z,35.62
2023-04-01T01:19:49.526Z,35.62
2023-04-01T01:20:49.394Z,35.60
2023-04-01T01:21:49.385Z,35.61
2023-04-01T01:22:49.379Z,35.60
2023-04-01T01:23:49.367Z,35.58
2023-04-01T01:24:49.385Z,35.59
2023-04-01T01:25:49.380Z,35.58
2023-04-01T01:26:49.401Z,35.55
2023-04-01T01:27:49.395Z,35.56
2023-04-01T01:28:49.396Z,35.54
2023-04-01T01:29:49.393Z,35.55
2023-04-01T01:30:49.428Z,35.55
2023-04-01T01:31:49.413Z,35.55
2023-04-01T01:32:49.474Z,35.55
2023-04-01T01:33:49.426Z,35.55
2023-04-01T01:34:49.431Z,35.54
2023-04-01T01:35:49.504Z,35.51
2023-04-01T01:36:49.422Z,35.52
2023-04-01T01:37:49.433Z,35.52
2023-04-01T01:38:49.434Z,35.50
2023-04-01T01:39:49.427Z,35.51
2023-04-01T01:40:49.441Z,35.51
2023-04-01T01:41:49.441Z,35.49
2023-04-01T01:42:49.439Z,35.49
2023-04-01T01:43:49.445Z,35.49
2023-04-01T01:44:49.451Z,35.48
2023-04-01T01:45:49.458Z,35.48
2023-04-01T01:46:49.439Z,35.47
2023-04-01T01:47:49.501Z,35.46
2023-04-01T01:48:49.461Z,35.45
2023-04-01T01:49:49.454Z,35.45
2023-04-01T01:50:49.446Z,35.46
2023-04-01T01:51:49.429Z,35.47
2023-04-01T01:52:49.431Z,35.45
2023-04-01T01:53:49.439Z,35.46
2023-04-01T01:54:49.457Z,35.45
2023-04-01T01:55:49.438Z,35.44
2023-04-01T01:56:49.470Z,35.44
2023-04-01T01:57:49.427Z,35.41
2023-04-01T01:58:49.434Z,35.41
2023-04-01T01:59:49.443Z,35.42
2023-04-01T02:00:49.448Z,35.42
2023-04-01T02:01:49.484Z,35.42
2023-04-01T02:02:49.490Z,35.39
2023-04-01T02:03:49.463Z,35.40
2023-04-01T02:04:49.623Z,35.39
2023-04-01T02:05:49.458Z,35.38
2023-04-01T02:06:49.460Z,35.38
2023-04-01T02:07:49.454Z,35.37
2023-04-01T02:08:49.451Z,35.37
2023-04-01T02:09:49.461Z,35.35
2023-04-01T02:10:49.455Z,35.37
2023-04-01T02:11:49.461Z,35.36
2023-04-01T02:12:49.449Z,35.37
2023-04-01T02:13:49.441Z,35.34
2023-04-01T02:14:49.448Z,35.35
2023-04-01T02:15:49.491Z,35.36
2023-04-01T02:16:49.445Z,35.34
2023-04-01T02:17:49.463Z,35.33
2023-04-01T02:18:49.448Z,35.31
2023-04-01T02:19:49.442Z,35.33
2023-04-01T02:20:49.452Z,35.32
2023-04-01T02:21:49.429Z,35.34
2023-04-01T02:22:49.420Z,35.32
2023-04-01T02:23:49.436Z,35.29
2023-04-01T02:24:49.430Z,35.29
2023-04-01T02:25:49.431Z,35.30
2023-04-01T02:26:49.424Z,35.30
2023-04-01T02:27:49.422Z,35.28
2023-04-01T02:28:49.431Z,35.28
2023-04-01T02:29:49.423Z,35.29
2023-04-01T02:30:49.430Z,35.27
2023-04-01T02:31:49.532Z,35.26
2023-04-01T02:32:49.506Z,35.27
2023-04-01T02:33:49.437Z,35.26
2023-04-01T02:34:49.464Z,35.24
2023-04-01T02:35:49.455Z,35.25
2023-04-01T02:36:49.464Z,35.25
2023-04-01T02:37:49.499Z,35.23
2023-04-01T02:38:49.439Z,35.24
2023-04-01T02:39:49.456Z,35.22
2023-04-01T02:40:49.462Z,35.24
2023-04-01T02:41:49.453Z,35.23
2023-04-01T02:42:49.455Z,35.25
2023-04-01T02:43:49.454Z,35.25
2023-04-01T02:44:49.468Z,35.21
2023-04-01T02:45:49.468Z,35.22
2023-04-01T02:46:49.528Z,35.20
2023-04-01T02:47:49.479Z,35.20
2023-04-01T02:48:49.470Z,35.21
2023-04-01T02:49:49.469Z,35.20
2023-04-01T02:50:49.460Z,35.19
2023-04-01T02:51:49.455Z,35.17
2023-04-01T02:52:49.487Z,35.18
2023-04-01T02:53:49.448Z,35.16
2023-04-01T02:54:49.456Z,35.16
2023-04-01T02:55:49.451Z,35.17
2023-04-01T02:56:49.497Z,35.16
2023-04-01T02:57:49.455Z,35.16
2023-04-01T02:58:49.450Z,35.17
2023-04-01T02:59:49.471Z,35.13
2023-04-01T03:00:49.538Z,35.12
2023-04-01T03:01:49.448Z,35.13
2023-04-01T03:02:49.525Z,35.13
2023-04-01T03:03:49.458Z,35.10
2023-04-01T03:04:49.501Z,35.11
2023-04-01T03:05:49.481Z,35.11
2023-04-01T03:06:49.450Z,35.09
2023-04-01T03:07:49.453Z,35.09
2023-04-01T03:08:49.475Z,35.08
2023-04-01T03:09:49.477Z,35.10
2023-04-01T03:10:49.466Z,35.07
2023-04-01T03:11:49.445Z,35.08
2023-04-01T03:12:49.451Z,35.09
2023-04-01T03:13:49.451Z,35.07
2023-04-01T03:14:49.460Z,35.05
2023-04-01T03:15:49.496Z,35.06
2023-04-01T03:16:49.550Z,35.04
2023-04-01T03:17:49.499Z,35.06
2023-04-01T03:18:49.460Z,35.03
2023-04-01T03:19:49.457Z,35.04
2023-04-01T03:20:49.485Z,35.03
2023-04-01T03:21:49.456Z,35.01
2023-04-01T03:22:49.472Z,35.00
2023-04-01T03:23:49.456Z,35.00
2023-04-01T03:24:49.476Z,35.02
2023-04-01T03:25:49.481Z,34.97
2023-04-01T03:26:49.461Z,34.99
2023-04-01T03:27:49.437Z,35.00
2023-04-01T03:28:49.444Z,34.99
2023-04-01T03:29:49.490Z,34.99
2023-04-01T03:30:49.466Z,34.98
2023-04-01T03:31:49.410Z,34.99
2023-04-01T03:32:49.458Z,34.98
2023-04-01T03:33:49.436Z,34.96
2023-04-01T03:34:49.434Z,34.96
2023-04-01T03:35:49.502Z,34.94
2023-04-01T03:36:49.416Z,34.95
2023-04-01T03:37:49.414Z,34.96
2023-04-01T03:38:49.408Z,34.96
2023-04-01T03:39:49.408Z,34.95
2023-04-01T03:40:49.435Z,34.92
2023-04-01T03:41:49.413Z,34.93
2023-04-01T03:42:49.432Z,34.93
2023-04-01T03:43:49.408Z,34.94
2023-04-01T03:44:49.400Z,34.93
2023-04-01T03:45:49.438Z,34.94
2023-04-01T03:46:49.401Z,34.95
2023-04-01T03:47:49.433Z,34.92
2023-04-01T03:48:49.400Z,34.92
2023-04-01T03:49:49.407Z,34.91
2023-04-01T03:50:49.401Z,34.92
2023-04-01T03:51:49.407Z,34.90
2023-04-01T03:52:49.406Z,34.92
2023-04-01T03:53:49.402Z,34.89
2023-04-01T03:54:49.413Z,34.89
2023-04-01T03:55:49.401Z,34.89
2023-04-01T03:56:49.456Z,34.86
2023-04-01T03:57:49.397Z,34.87
2023-04-01T03:58:49.392Z,34.86
2023-04-01T03:59:49.383Z,34.87
2023-04-01T04:00:49.408Z,34.88
2023-04-01T04:01:49.386Z,34.86
2023-04-01T04:02:49.443Z,34.86
2023-04-01T04:03:49.421Z,34.87
2023-04-01T04:04:49.389Z,34.84
2023-04-01T04:05:49.406Z,34.85
2023-04-01T04:06:49.386Z,34.84
2023-04-01T04:07:49.408Z,34.86
2023-04-01T04:08:49.383Z,34.83
2023-04-01T04:09:49.389Z,34.84
2023-04-01T04:10:49.383Z,34.82
2023-04-01T04:11:49.388Z,34.83
2023-04-01T04:12:49.421Z,34.82
2023-04-01T04:13:49.384Z,34.82
2023-04-01T04:14:49.383Z,34.81
2023-04-01T04:15:49.409Z,34.81
2023-04-01T04:16:49.380Z,34.80
2023-04-01T04:17:49.404Z,34.81
2023-04-01T04:18:49.384Z,34.79
2023-04-01T04:19:49.391Z,34.80
2023-04-01T04:20:49.391Z,34.80
2023-04-01T04:21:49.391Z,34.80
2023-04-01T04:22:49.380Z,34.79
2023-04-01T04:23:49.390Z,34.79
2023-04-01T04:24:49.384Z,34.80
2023-04-01T04:25:49.393Z,34.79
2023-04-01T04:26:49.382Z,34.80
2023-04-01T04:27:49.386Z,34.79
2023-04-01T04:28:49.402Z,34.77
2023-04-01T04:29:49.376Z,34.76
2023-04-01T04:30:49.388Z,34.76
2023-04-01T04:31:49.465Z,34.75
2023-04-01T04:32:49.407Z,34.76
2023-04-01T04:33:49.379Z,34.75
2023-04-01T04:34:49.377Z,34.74
2023-04-01T04:35:49.386Z,34.75
2023-04-01T04:36:49.367Z,34.75
2023-04-01T04:37:49.360Z,34.72
2023-04-01T04:38:49.365Z,34.72
2023-04-01T04:39:49.370Z,34.73
2023-04-01T04:40:49.359Z,34.72
2023-04-01T04:41:49.381Z,34.70
2023-04-01T04:42:49.355Z,34.73
2023-04-01T04:43:49.350Z,34.72
2023-04-01T04:44:49.381Z,34.70
2023-04-01T04:45:49.342Z,34.73
2023-04-01T04:46:49.408Z,34.72
2023-04-01T04:47:49.384Z,34.69
2023-04-01T04:48:49.351Z,34.70
2023-04-01T04:49:49.362Z,34.69
2023-04-01T04:50:49.353Z,34.69
2023-04-01T04:51:49.400Z,34.68
2023-04-01T04:52:49.348Z,34.69
2023-04-01T04:53:50.764Z,34.69
2023-04-01T04:54:49.320Z,34.69
2023-04-01T04:55:49.298Z,34.68
2023-04-01T04:56:49.313Z,34.66
2023-04-01T04:57:49.255Z,34.67
2023-04-01T04:58:49.251Z,34.69
2023-04-01T04:59:49.207Z,34.65
2023-04-01T05:00:49.200Z,34.67
2023-04-01T05:01:49.302Z,34.67
2023-04-01T05:02:49.318Z,34.68
2023-04-01T05:03:49.144Z,34.68
2023-04-01T05:04:49.106Z,34.63
2023-04-01T05:05:49.081Z,34.63
2023-04-01T05:06:49.062Z,34.65
2023-04-01T05:07:49.041Z,34.65
2023-04-01T05:08:49.020Z,34.65
2023-04-01T05:09:49.016Z,34.65
2023-04-01T05:10:48.987Z,34.65
2023-04-01T05:11:48.969Z,34.64
2023-04-01T05:12:48.950Z,34.63
2023-04-01T05:13:48.931Z,34.62
2023-04-01T05:14:48.914Z,34.65
2023-04-01T05:15:48.907Z,34.61
2023-04-01T05:16:48.983Z,34.63
2023-04-01T05:17:48.887Z,34.64
2023-04-01T05:18:48.841Z,34.62
2023-04-01T05:19:48.818Z,34.64
2023-04-01T05:20:48.805Z,34.61
2023-04-01T05:21:48.783Z,34.62
2023-04-01T05:22:48.798Z,34.62
2023-04-01T05:23:48.765Z,34.61
2023-04-01T05:24:48.737Z,34.61
2023-04-01T05:25:48.724Z,34.59
2023-04-01T05:26:48.712Z,34.59
2023-04-01T05:27:48.704Z,34.58
2023-04-01T05:28:48.689Z,34.60
2023-04-01T05:29:48.767Z,34.59
2023-04-01T05:30:48.701Z,34.59
2023-04-01T05:31:48.642Z,34.57
2023-04-01T05:32:48.711Z,34.60
2023-04-01T05:33:48.607Z,34.59
2023-04-01T05:34:48.600Z,34.58
2023-04-01T05:35:48.590Z,34.58
2023-04-01T05:36:48.553Z,34.58
2023-04-01T05:37:48.548Z,34.57
2023-04-01T05:38:48.533Z,34.57
2023-04-01T05:39:48.519Z,34.55
2023-04-01T05:40:48.542Z,34.56
2023-04-01T05:41:48.514Z,34.56
2023-04-01T05:42:48.481Z,34.56
2023-04-01T05:43:48.465Z,34.55
2023-04-01T05:44:48.464Z,34.55
2023-04-01T05:45:48.446Z,34.54
2023-04-01T05:46:48.420Z,34.54
2023-04-01T05:47:48.478Z,34.54
2023-04-01T05:48:48.401Z,34.55
2023-04-01T05:49:48.366Z,34.54
2023-04-01T05:50:48.337Z,34.55
2023-04-01T05:51:48.319Z,34.51
2023-04-01T05:52:48.301Z,34.52
2023-04-01T05:53:48.292Z,34.54
2023-04-01T05:54:48.258Z,34.53
2023-04-01T05:55:48.243Z,34.52
2023-04-01T05:56:48.898Z,34.53
2023-04-01T05:57:48.207Z,34.51
2023-04-01T05:58:48.204Z,34.52
2023-04-01T05:59:48.166Z,34.52
2023-04-01T06:00:48.151Z,34.51
2023-04-01T06:01:48.149Z,34.54
2023-04-01T06:02:48.212Z,34.54
2023-04-01T06:03:48.358Z,34.49
2023-04-01T06:04:48.170Z,34.51
2023-04-01T06:05:48.082Z,34.51
2023-04-01T06:06:48.102Z,34.50
2023-04-01T06:07:48.085Z,34.52
2023-04-01T06:08:48.093Z,34.52
2023-04-01T06:09:48.100Z,34.50
2023-04-01T06:10:48.104Z,34.52
2023-04-01T06:11:48.105Z,34.51
2023-04-01T06:12:48.109Z,34.51
2023-04-01T06:13:48.109Z,34.51
2023-04-01T06:14:48.114Z,34.53
2023-04-01T06:15:48.128Z,34.51
2023-04-01T06:16:48.125Z,34.49
2023-04-01T06:17:48.185Z,34.51
2023-04-01T06:18:48.135Z,34.51
2023-04-01T06:19:48.146Z,34.51
2023-04-01T06:20:48.157Z,34.50
2023-04-01T06:21:48.332Z,34.51
2023-04-01T06:22:48.184Z,34.49
2023-04-01T06:23:48.174Z,34.48
2023-04-01T06:24:48.148Z,34.49
2023-04-01T06:25:48.149Z,34.52
2023-04-01T06:26:48.187Z,34.49
2023-04-01T06:27:48.173Z,34.50
2023-04-01T06:28:48.161Z,34.49
2023-04-01T06:29:48.158Z,34.49
2023-04-01T06:30:48.155Z,34.49
2023-04-01T06:31:48.204Z,34.50
2023-04-01T06:32:48.222Z,34.51
2023-04-01T06:33:48.192Z,34.49
2023-04-01T06:34:48.198Z,34.49
2023-04-01T06:35:48.289Z,34.47
2023-04-01T06:36:48.244Z,34.47
2023-04-01T06:37:48.204Z,34.49
2023-04-01T06:38:48.212Z,34.49
2023-04-01T06:39:48.206Z,34.48
2023-04-01T06:40:48.213Z,34.47
2023-04-01T06:41:48.216Z,34.45
2023-04-01T06:42:48.231Z,34.45
2023-04-01T06:43:48.225Z,34.46
2023-04-01T06:44:48.228Z,34.45
2023-04-01T06:45:48.289Z,34.44
2023-04-01T06:46:48.253Z,34.43
2023-04-01T06:47:48.270Z,34.44
2023-04-01T06:48:48.252Z,34.41
2023-04-01T06:49:48.259Z,34.43
2023-04-01T06:50:48.257Z,34.42
2023-04-01T06:51:48.329Z,34.43
2023-04-01T06:52:48.290Z,34.42
2023-04-01T06:53:48.272Z,34.41
2023-04-01T06:54:48.284Z,34.42
2023-04-01T06:55:48.280Z,34.42
2023-04-01T06:56:48.361Z,34.40
2023-04-01T06:57:48.334Z,34.41
2023-04-01T06:58:48.297Z,34.40
2023-04-01T06:59:48.290Z,34.38
2023-04-01T07:00:48.292Z,34.37
2023-04-01T07:01:48.371Z,34.37
2023-04-01T07:02:48.309Z,34.37
2023-04-01T07:03:48.318Z,34.39
2023-04-01T07:04:48.498Z,34.37
2023-04-01T07:05:48.311Z,34.36
2023-04-01T07:06:48.318Z,34.37
2023-04-01T07:07:48.310Z,34.34
2023-04-01T07:08:48.346Z,34.34
2023-04-01T07:09:48.323Z,34.33
2023-04-01T07:10:48.326Z,34.31
2023-04-01T07:11:48.323Z,34.29
2023-04-01T07:12:48.332Z,34.31
2023-04-01T07:13:48.316Z,34.27
2023-04-01T07:14:48.308Z,34.26
2023-04-01T07:15:48.613Z,34.22
2023-04-01T07:16:48.355Z,34.24
2023-04-01T07:17:48.336Z,34.25
2023-04-01T07:18:48.301Z,34.24
2023-04-01T07:19:48.280Z,34.23
2023-04-01T07:20:48.270Z,34.24
2023-04-01T07:21:48.265Z,34.22
2023-04-01T07:22:48.265Z,34.22
2023-04-01T07:23:48.262Z,34.21
2023-04-01T07:24:48.276Z,34.21
2023-04-01T07:25:48.241Z,34.21
2023-04-01T07:26:48.269Z,34.21
2023-04-01T07:27:48.225Z,34.20
2023-04-01T07:28:48.232Z,34.19
2023-04-01T07:29:48.471Z,34.18
2023-04-01T07:30:48.270Z,34.18
2023-04-01T07:31:48.237Z,34.15
2023-04-01T07:32:48.239Z,34.18
2023-04-01T07:33:48.219Z,34.14
2023-04-01T07:34:48.211Z,34.14
2023-04-01T07:35:48.225Z,34.16
2023-04-01T07:36:48.211Z,34.14
2023-04-01T07:37:48.212Z,34.17
2023-04-01T07:38:48.244Z,34.19
2023-04-01T07:39:48.217Z,34.19
2023-04-01T07:40:48.239Z,34.20
2023-04-01T07:41:48.217Z,34.17
2023-04-01T07:42:48.205Z,34.16
2023-04-01T07:43:48.202Z,34.16
2023-04-01T07:44:48.204Z,34.16
2023-04-01T07:45:48.218Z,34.15
2023-04-01T07:46:48.208Z,34.18
2023-04-01T07:47:48.254Z,34.19
2023-04-01T07:48:48.217Z,34.17
2023-04-01T07:49:48.204Z,34.18
2023-04-01T07:50:48.828Z,34.17
2023-04-01T07:51:48.187Z,34.15
2023-04-01T07:52:48.178Z,34.18
2023-04-01T07:53:48.158Z,34.20
2023-04-01T07:54:48.133Z,34.18
2023-04-01T07:55:48.121Z,34.19
2023-04-01T07:56:48.144Z,34.18
2023-04-01T07:57:48.071Z,34.17
2023-04-01T07:58:48.047Z,34.19
2023-04-01T07:59:48.027Z,34.18
2023-04-01T08:00:48.022Z,34.17
2023-04-01T08:01:47.992Z,34.16
2023-04-01T08:02:48.050Z,34.18
2023-04-01T08:03:48.120Z,34.19
2023-04-01T08:04:47.930Z,34.15
2023-04-01T08:05:47.899Z,34.16
2023-04-01T08:06:47.884Z,34.16
2023-04-01T08:07:47.857Z,34.17
2023-04-01T08:08:47.844Z,34.14
2023-04-01T08:09:47.827Z,34.15
2023-04-01T08:10:47.804Z,34.12
2023-04-01T08:11:47.773Z,34.12
2023-04-01T08:12:47.780Z,34.12
2023-04-01T08:13:47.757Z,34.11
2023-04-01T08:14:47.707Z,34.09
2023-04-01T08:15:47.810Z,34.09
2023-04-01T08:16:47.674Z,34.11
2023-04-01T08:17:47.667Z,34.12
2023-04-01T08:18:47.680Z,34.13
2023-04-01T08:19:47.645Z,34.11
2023-04-01T08:20:47.593Z,34.12
2023-04-01T08:21:47.568Z,34.12
2023-04-01T08:22:47.558Z,34.12
2023-04-01T08:23:47.530Z,34.11
2023-04-01T08:24:48.450Z,34.11
2023-04-01T08:25:47.494Z,34.12
2023-04-01T08:26:47.467Z,34.10
2023-04-01T08:27:47.444Z,34.11
2023-04-01T08:28:47.448Z,34.09
2023-04-01T08:29:47.444Z,34.09
2023-04-01T08:30:47.389Z,34.08
2023-04-01T08:31:47.409Z,34.07
2023-04-01T08:32:47.377Z,34.06
2023-04-01T08:33:47.319Z,34.05
2023-04-01T08:34:47.297Z,34.03
2023-04-01T08:35:47.319Z,34.03
2023-04-01T08:36:47.259Z,34.05
2023-04-01T08:37:47.238Z,34.02
2023-04-01T08:38:47.228Z,34.04
2023-04-01T08:39:47.238Z,34.05
2023-04-01T08:40:47.186Z,34.04
2023-04-01T08:41:47.158Z,34.01
2023-04-01T08:42:47.129Z,33.98
2023-04-01T08:43:47.114Z,33.98
2023-04-01T08:44:47.137Z,33.94
2023-04-01T08:45:47.080Z,33.95
2023-04-01T08:46:47.057Z,33.92
2023-04-01T08:47:47.048Z,33.92
2023-04-01T08:48:47.016Z,33.92
2023-04-01T08:49:46.992Z,33.90
2023-04-01T08:50:46.976Z,33.90
2023-04-01T08:51:46.969Z,33.91
2023-04-01T08:52:46.939Z,33.91
2023-04-01T08:53:46.919Z,33.88
2023-04-01T08:54:46.906Z,33.89
2023-04-01T08:55:46.888Z,33.89
2023-04-01T08:56:46.897Z,33.84
2023-04-01T08:57:46.839Z,33.85
2023-04-01T08:58:46.814Z,33.83
2023-04-01T08:59:46.809Z,33.85
2023-04-01T09:00:46.848Z,33.85
2023-04-01T09:01:46.748Z,33.87
2023-04-01T09:02:46.805Z,33.84
2023-04-01T09:03:46.795Z,33.82
2023-04-01T09:04:46.680Z,33.83
2023-04-01T09:05:46.709Z,33.83
2023-04-01T09:06:46.627Z,33.82
2023-04-01T09:07:46.618Z,33.82
2023-04-01T09:08:46.616Z,33.79
2023-04-01T09:09:46.578Z,33.80
2023-04-01T09:10:46.553Z,33.78
2023-04-01T09:11:46.577Z,33.78
2023-04-01T09:12:46.520Z,33.78
2023-04-01T09:13:46.507Z,33.81
2023-04-01T09:14:46.515Z,33.77
2023-04-01T09:15:46.528Z,33.79
2023-04-01T09:16:46.491Z,33.76
2023-04-01T09:17:46.524Z,33.74
2023-04-01T09:18:46.451Z,33.73
2023-04-01T09:19:46.457Z,33.76
2023-04-01T09:20:46.437Z,33.74
2023-04-01T09:21:46.435Z,33.74
2023-04-01T09:22:46.441Z,33.73
2023-04-01T09:23:46.431Z,33.73
2023-04-01T09:24:46.437Z,33.71
2023-04-01T09:25:46.422Z,33.72
2023-04-01T09:26:46.411Z,33.74
2023-04-01T09:27:46.400Z,33.75
2023-04-01T09:28:46.387Z,33.77
2023-04-01T09:29:46.385Z,33.77
2023-04-01T09:30:46.375Z,33.75
2023-04-01T09:31:46.391Z,33.73
2023-04-01T09:32:46.403Z,33.68
2023-04-01T09:33:46.326Z,33.71
2023-04-01T09:34:46.314Z,33.70
2023-04-01T09:35:46.340Z,33.69
2023-04-01T09:36:46.309Z,33.68
2023-04-01T09:37:46.290Z,33.69
2023-04-01T09:38:46.300Z,33.65
2023-04-01T09:39:46.289Z,33.64
2023-04-01T09:40:46.267Z,33.66
2023-04-01T09:41:46.253Z,33.65
2023-04-01T09:42:46.233Z,33.61
2023-04-01T09:43:46.237Z,33.64
2023-04-01T09:44:46.223Z,33.64
2023-04-01T09:45:46.221Z,33.63
2023-04-01T09:46:46.396Z,33.61
2023-04-01T09:47:46.248Z,33.60
2023-04-01T09:48:46.233Z,33.59
2023-04-01T09:49:46.195Z,33.60
2023-04-01T09:50:46.161Z,33.58
2023-04-01T09:51:46.181Z,33.58
2023-04-01T09:52:46.558Z,33.59
2023-04-01T09:53:46.141Z,33.57
2023-04-01T09:54:46.131Z,33.56
2023-04-01T09:55:46.095Z,33.53
2023-04-01T09:56:46.135Z,33.53
2023-04-01T09:57:46.078Z,33.50
2023-04-01T09:58:46.057Z,33.50
2023-04-01T09:59:46.050Z,33.51
2023-04-01T10:00:46.042Z,33.53
2023-04-01T10:01:46.058Z,33.55
2023-04-01T10:02:46.045Z,33.55
2023-04-01T10:03:46.034Z,33.55
2023-04-01T10:04:46.038Z,33.51
2023-04-01T10:05:46.031Z,33.57
2023-04-01T10:06:45.981Z,33.56
2023-04-01T10:07:45.978Z,33.53
2023-04-01T10:08:45.946Z,33.53
2023-04-01T10:09:46.048Z,33.55
2023-04-01T10:10:45.919Z,33.53
2023-04-01T10:11:45.917Z,33.49
2023-04-01T10:12:45.907Z,33.53
2023-04-01T10:13:45.886Z,33.51
2023-04-01T10:14:45.885Z,33.53
2023-04-01T10:15:45.860Z,33.52
2023-04-01T10:16:45.905Z,33.54
2023-04-01T10:17:45.851Z,33.50
2023-04-01T10:18:45.823Z,33.48
2023-04-01T10:19:45.860Z,33.46
2023-04-01T10:20:45.855Z,33.45
2023-04-01T10:21:45.800Z,33.44
2023-04-01T10:22:45.782Z,33.42
2023-04-01T10:23:45.773Z,33.43
2023-04-01T10:24:45.770Z,33.46
2023-04-01T10:25:45.792Z,33.48
2023-04-01T10:26:45.745Z,33.46
2023-04-01T10:27:45.731Z,33.44
2023-04-01T10:28:45.736Z,33.43
2023-04-01T10:29:45.708Z,33.46
2023-04-01T10:30:45.709Z,33.46
2023-04-01T10:31:45.788Z,33.43
2023-04-01T10:32:45.715Z,33.42
2023-04-01T10:33:45.692Z,33.44
2023-04-01T10:34:45.683Z,33.41
2023-04-01T10:35:45.698Z,33.40
2023-04-01T10:36:45.697Z,33.42
2023-04-01T10:37:45.654Z,33.40
2023-04-01T10:38:45.684Z,33.39
2023-04-01T10:39:45.662Z,33.41
2023-04-01T10:40:45.670Z,33.38
2023-04-01T10:41:45.643Z,33.38
2023-04-01T10:42:45.632Z,33.37
2023-04-01T10:43:45.601Z,33.40
2023-04-01T10:44:45.604Z,33.40
2023-04-01T10:45:45.645Z,33.40
2023-04-01T10:46:45.563Z,33.38
2023-04-01T10:47:45.580Z,33.41
2023-04-01T10:48:45.548Z,33.39
2023-04-01T10:49:45.545Z,33.39
2023-04-01T10:50:45.564Z,33.41
2023-04-01T10:51:45.547Z,33.44
2023-04-01T10:52:45.572Z,33.43
2023-04-01T10:53:45.527Z,33.42
2023-04-01T10:54:45.522Z,33.44
2023-04-01T10:55:45.513Z,33.45
2023-04-01T10:56:45.762Z,33.42
2023-04-01T10:57:45.507Z,33.42
2023-04-01T10:58:45.495Z,33.43
2023-04-01T10:59:45.481Z,33.45
2023-04-01T11:00:45.481Z,33.42
2023-04-01T11:01:45.610Z,33.40
2023-04-01T11:02:45.543Z,33.40
2023-04-01T11:03:45.529Z,33.40
2023-04-01T11:04:45.477Z,33.41
2023-04-01T11:05:45.448Z,33.39
2023-04-01T11:06:45.445Z,33.41
2023-04-01T11:07:52.899Z,33.41
2023-04-01T11:08:45.442Z,33.43
2023-04-01T11:09:45.412Z,33.41
2023-04-01T11:10:45.413Z,33.41
2023-04-01T11:11:45.386Z,33.39
2023-04-01T11:12:45.369Z,33.37
2023-04-01T11:13:45.355Z,33.35
2023-04-01T11:14:45.360Z,33.36
2023-04-01T11:15:45.355Z,33.37
2023-04-01T11:16:45.324Z,33.35
2023-04-01T11:17:45.336Z,33.34
2023-04-01T11:18:45.278Z,33.35
2023-04-01T11:19:45.280Z,33.32
2023-04-01T11:20:45.230Z,33.32
2023-04-01T11:21:45.202Z,33.31
2023-04-01T11:22:45.194Z,33.30
2023-04-01T11:23:49.318Z,33.32
2023-04-01T11:24:45.167Z,33.31
2023-04-01T11:25:45.122Z,33.30
2023-04-01T11:26:45.129Z,33.32
2023-04-01T11:27:45.074Z,33.31
2023-04-01T11:28:45.081Z,33.29
2023-04-01T11:29:53.379Z,33.28
2023-04-01T11:30:45.031Z,33.31
2023-04-01T11:31:45.050Z,33.30
2023-04-01T11:32:45.001Z,33.29
2023-04-01T11:33:44.967Z,33.30
2023-04-01T11:34:44.950Z,33.29
2023-04-01T11:35:44.943Z,33.27
2023-04-01T11:36:44.930Z,33.28
2023-04-01T11:37:44.883Z,33.27
2023-04-01T11:38:44.864Z,33.31
2023-04-01T11:39:44.852Z,33.29
2023-04-01T11:40:44.862Z,33.28
2023-04-01T11:41:44.837Z,33.30
2023-04-01T11:42:44.808Z,33.28
2023-04-01T11:43:44.794Z,33.27
2023-04-01T11:44:44.791Z,33.27
2023-04-01T11:45:44.769Z,33.28
2023-04-01T11:46:44.917Z,33.28
2023-04-01T11:47:44.781Z,33.27
2023-04-01T11:48:45.552Z,33.26
2023-04-01T11:49:44.709Z,33.24
2023-04-01T11:50:44.690Z,33.23
2023-04-01T11:51:44.680Z,33.20
2023-04-01T11:52:44.672Z,33.20
2023-04-01T11:53:44.657Z,33.20
2023-04-01T11:54:44.646Z,33.22
2023-04-01T11:55:44.623Z,33.21
2023-04-01T11:56:44.634Z,33.22
2023-04-01T11:57:44.585Z,33.20
2023-04-01T11:58:44.566Z,33.17
2023-04-01T11:59:44.554Z,33.15
2023-04-01T12:00:44.537Z,33.12
2023-04-01T12:01:44.520Z,33.14
2023-04-01T12:02:44.622Z,33.11
2023-04-01T12:03:44.629Z,33.10
2023-04-01T12:04:44.520Z,33.12
2023-04-01T12:05:43.463Z,33.10
2023-04-01T12:06:44.452Z,33.09
2023-04-01T12:07:46.417Z,33.11
2023-04-01T12:08:44.421Z,33.11
2023-04-01T12:09:44.409Z,33.09
2023-04-01T12:10:44.401Z,33.11
2023-04-01T12:11:44.373Z,33.12
2023-04-01T12:12:54.136Z,33.08
2023-04-01T12:13:44.407Z,33.08
2023-04-01T12:14:44.367Z,33.09
2023-04-01T12:15:44.327Z,33.08
2023-04-01T12:16:43.370Z,33.09
2023-04-01T12:17:44.324Z,33.11
2023-04-01T12:18:44.290Z,33.07
2023-04-01T12:19:44.265Z,33.09
2023-04-01T12:20:44.255Z,33.09
2023-04-01T12:21:44.243Z,33.09
2023-04-01T12:22:44.224Z,33.09
2023-04-01T12:23:44.223Z,33.12
2023-04-01T12:24:44.197Z,33.13
2023-04-01T12:25:44.225Z,33.09
2023-04-01T12:26:44.179Z,33.10
2023-04-01T12:27:44.156Z,33.09
2023-04-01T12:28:44.174Z,33.11
2023-04-01T12:29:44.143Z,33.10
2023-04-01T12:30:44.200Z,33.11
2023-04-01T12:31:44.167Z,33.10
2023-04-01T12:32:44.184Z,33.11
2023-04-01T12:33:44.134Z,33.12
2023-04-01T12:34:44.148Z,33.11
2023-04-01T12:35:44.166Z,33.11
2023-04-01T12:36:44.136Z,33.10
2023-04-01T12:37:44.133Z,33.12
2023-04-01T12:38:44.132Z,33.12
2023-04-01T12:39:44.133Z,33.14
2023-04-01T12:40:44.130Z,33.12
2023-04-01T12:41:44.118Z,33.12
2023-04-01T12:42:44.097Z,33.14
2023-04-01T12:43:44.097Z,33.12
2023-04-01T12:44:44.119Z,33.14
2023-04-01T12:45:44.134Z,33.13
2023-04-01T12:46:44.066Z,33.13
2023-04-01T12:47:44.098Z,33.13
2023-04-01T12:48:44.052Z,33.15
2023-04-01T12:49:44.029Z,33.12
2023-04-01T12:50:44.041Z,33.11
2023-04-01T12:51:44.028Z,33.11
2023-04-01T12:52:44.023Z,33.12